Sloman Dispatcher — V2FO3 — position and weather

sailwx.info

Track history (hours):
 
Tides and Currents Weather Stations Pressure Air Temp Water Temp Dewpoint Dewpoint Depression Visibility Wind Speed Wind Dir Waves Ship Positions

Sloman Dispatcher

Last reported at 2018-Jan-11 07:44 UTC. Time now 2018-Jan-18 12:20 UTC.
Position N 35°52' W 004°28'.

Length 138 m; draft 6.8 m.

Type: Cargo ship. MMSI: 305738000.

Date/timePositionNaut miles runAvg speedWind from/ knotsBaromVisibWave heightAir tempDewpointWater temp
2018-Jan-11 07:44N 35°52' W 004°28'415.2
2018-Jan-11 07:30N 35°53' W 004°33'815.7
2018-Jan-11 07:00N 35°54' W 004°42'814.9
2018-Jan-11 06:30N 35°55' W 004°52'714.4
2018-Jan-11 06:00N 35°55' W 005°00'815.0
2018-Jan-11 05:29N 35°57' W 005°10'816.4
2018-Jan-11 05:00N 35°58' W 005°19'816.7
2018-Jan-11 04:30N 35°57' W 005°30'917.9
2018-Jan-11 03:59N 35°55' W 005°41'714.5
2018-Jan-11 03:30N 35°55' W 005°49'714.8
2018-Jan-11 03:00N 35°54' W 005°59'815.3
2018-Jan-11 02:29N 35°54' W 006°08'23412.3
2018-Jan-10 07:29N 38°19' W 009°59'714.3
2018-Jan-10 06:59N 38°26' W 010°01'814.4
2018-Jan-10 06:27N 38°33' W 010°03'714.4
2018-Jan-10 05:58N 38°40' W 010°05'613.8
2018-Jan-10 05:30N 38°46' W 010°06'713.6
2018-Jan-10 05:00N 38°53' W 010°06'713.0
2018-Jan-10 04:28N 38°60' W 010°03'613.6
2018-Jan-10 04:00N 39°06' W 009°59'713.3
2018-Jan-10 03:30N 39°12' W 009°56'714.0
2018-Jan-10 02:59N 39°18' W 009°52'1013.5
2018-Jan-10 02:15N 39°27' W 009°47'10913.9
2018-Jan-09 18:24N 41°06' W 008°46'512.3
2018-Jan-09 18:00N 41°10' W 008°42'1 2.1
2018-Jan-09 17:29N 41°11' W 008°42'0 0.0
2018-Jan-09 16:59N 41°11' W 008°42'0 0.0
2018-Jan-09 16:29N 41°11' W 008°42'0 0.0
2018-Jan-09 15:59N 41°11' W 008°42'0 0.0
2018-Jan-09 15:29N 41°11' W 008°42'0 0.0
2018-Jan-09 14:59N 41°11' W 008°42'0 0.0
2018-Jan-09 14:29N 41°11' W 008°42'0 0.0
2018-Jan-09 13:59N 41°11' W 008°42'0 0.0
2018-Jan-09 13:29N 41°11' W 008°42'0 0.0
2018-Jan-09 12:59N 41°11' W 008°42'0 0.0
2018-Jan-09 12:29N 41°11' W 008°42'0 0.0
2018-Jan-09 11:59N 41°11' W 008°42'0 0.0
2018-Jan-09 11:29N 41°11' W 008°42'0 0.0
2018-Jan-09 10:59N 41°11' W 008°42'0 0.0
2018-Jan-09 10:29N 41°11' W 008°42'0 0.0
2018-Jan-09 09:59N 41°11' W 008°42'0 0.0
2018-Jan-09 09:29N 41°11' W 008°42'0 0.0
2018-Jan-09 08:59N 41°11' W 008°42'0 0.0
2018-Jan-09 08:29N 41°11' W 008°42'0 0.0
2018-Jan-09 07:59N 41°11' W 008°42'0 0.0
2018-Jan-09 07:30N 41°11' W 008°42'2 4.3
2018-Jan-09 07:00N 41°09' W 008°43'4 7.0
2018-Jan-09 06:30N 41°12' W 008°47'611.4
2018-Jan-09 06:00N 41°17' W 008°51'56912.1
2018-Jan-07 07:01N 49°53' W 003°11'014.4
2018-Jan-07 07:01N 49°53' W 003°10'714.8
2018-Jan-07 06:30N 49°57' W 003°01'815.4
2018-Jan-07 06:00N 49°60' W 002°49'916.2
2018-Jan-07 05:27N 50°02' W 002°36'8813.8
2018-Jan-06 23:05N 50°27' W 000°24'112.2
2018-Jan-06 23:00N 50°27' W 000°23'612.5
2018-Jan-06 22:30N 50°29' W 000°13'713.4
2018-Jan-06 22:00N 50°31' W 000°03'714.0
2018-Jan-06 21:30N 50°33' E 000°07'714.9
2018-Jan-06 21:01N 50°35' E 000°18'815.5
2018-Jan-06 20:30N 50°37' E 000°30'815.6
2018-Jan-06 20:00N 50°41' E 000°41'815.9
2018-Jan-06 19:30N 50°46' E 000°51'815.6
2018-Jan-06 19:00N 50°50' E 001°01'1015.0
2018-Jan-06 18:18N 50°57' E 001°14'414.0
2018-Jan-06 18:00N 50°60' E 001°19'713.4
2018-Jan-06 17:30N 51°04' E 001°28'612.1
2018-Jan-06 17:00N 51°07' E 001°35'611.3
2018-Jan-06 16:31N 51°11' E 001°42'611.5
2018-Jan-06 16:00N 51°15' E 001°48'611.8
2018-Jan-06 15:31N 51°20' E 001°54'612.4
2018-Jan-06 15:00N 51°25' E 002°00'713.1
2018-Jan-06 14:31N 51°23' E 002°10'612.4
2018-Jan-06 14:01N 51°21' E 002°20'713.4
2018-Jan-06 13:29N 51°23' E 002°30'1013.4
2018-Jan-06 12:44N 51°22' E 002°46'415.4
2018-Jan-06 12:30N 51°23' E 002°52'815.7
2018-Jan-06 12:01N 51°24' E 003°04'714.8
2018-Jan-06 11:30N 51°25' E 003°16'714.4
2018-Jan-06 11:00N 51°25' E 003°28'714.2
2018-Jan-06 10:31N 51°26' E 003°39'714.3
2018-Jan-06 10:00N 51°21' E 003°47'714.7
2018-Jan-06 09:30N 51°25' E 003°58'3 6.7
2018-Jan-06 09:01N 51°23' E 004°02'713.1
2018-Jan-06 08:30N 51°23' E 004°13'510.9
2018-Jan-06 08:00N 51°18' E 004°17'2 4.6
2018-Jan-06 07:31N 51°17' E 004°20'0 0.8
2018-Jan-06 07:00N 51°16' E 004°20'2 4.3
2018-Jan-06 06:30N 51°15' E 004°23'0 0.1
2018-Jan-06 05:58N 51°15' E 004°23'0 0.0
2018-Jan-06 05:28N 51°15' E 004°23'0 0.0
2018-Jan-06 04:58N 51°15' E 004°23'0 0.0
2018-Jan-06 04:28N 51°15' E 004°23'0 0.0
2018-Jan-06 03:58N 51°15' E 004°23'0 0.0
2018-Jan-06 03:28N 51°15' E 004°23'0 0.0
2018-Jan-06 02:58N 51°15' E 004°23'0 0.0
2018-Jan-06 02:28N 51°15' E 004°23'0 0.0
2018-Jan-06 01:58N 51°15' E 004°23'0 0.0
2018-Jan-06 01:28N 51°15' E 004°23'0 0.0
2018-Jan-06 00:58N 51°15' E 004°23'0 0.0
2018-Jan-06 00:28N 51°15' E 004°23'0 0.0
2018-Jan-05 23:58N 51°15' E 004°23'0 0.0
2018-Jan-05 23:28N 51°15' E 004°23'0 0.0
2018-Jan-05 22:58N 51°15' E 004°23'0 0.0
2018-Jan-05 22:28N 51°15' E 004°23'0 0.0
2018-Jan-05 21:58N 51°15' E 004°23'0 0.0
2018-Jan-05 21:25N 51°15' E 004°23'0 0.0
2018-Jan-05 20:55N 51°15' E 004°23'0 0.0
2018-Jan-05 20:28N 51°15' E 004°23'0 0.0
2018-Jan-05 19:58N 51°15' E 004°23'0 0.0
2018-Jan-05 19:28N 51°15' E 004°23'0 0.0
2018-Jan-05 18:58N 51°15' E 004°23'0 0.0
2018-Jan-05 18:28N 51°15' E 004°23'0 0.0
2018-Jan-05 17:58N 51°15' E 004°23'0 0.0
2018-Jan-05 17:28N 51°15' E 004°23'0 0.0
2018-Jan-05 16:58N 51°15' E 004°23'0 0.0
2018-Jan-05 16:28N 51°15' E 004°23'0 0.0
2018-Jan-05 15:58N 51°15' E 004°23'0 0.0
2018-Jan-05 15:28N 51°15' E 004°23'0 0.0
2018-Jan-05 14:58N 51°15' E 004°23'0 0.0
2018-Jan-05 14:28N 51°15' E 004°23'0 0.0
2018-Jan-05 13:58N 51°15' E 004°23'0 0.0
2018-Jan-05 13:28N 51°15' E 004°23'0 0.0
2018-Jan-05 12:58N 51°15' E 004°23'0 0.0
2018-Jan-05 12:28N 51°15' E 004°23'0 0.0
2018-Jan-05 11:58N 51°15' E 004°23'0 0.0
2018-Jan-05 11:28N 51°15' E 004°23'0 0.0
2018-Jan-05 10:58N 51°15' E 004°23'0 0.0
2018-Jan-05 10:28N 51°15' E 004°23'0 0.0
2018-Jan-05 09:58N 51°15' E 004°23'0 0.0
2018-Jan-05 09:28N 51°15' E 004°23'0 0.0
2018-Jan-05 08:58N 51°15' E 004°23'0 0.0
2018-Jan-05 08:28N 51°15' E 004°23'0 0.0
2018-Jan-05 07:58N 51°15' E 004°23'0 0.0
2018-Jan-05 07:28N 51°15' E 004°23'0 0.0
2018-Jan-05 06:58N 51°15' E 004°23'0 0.0
2018-Jan-05 06:28N 51°15' E 004°23'0 0.0
2018-Jan-05 05:58N 51°15' E 004°23'0 0.0
2018-Jan-05 05:28N 51°15' E 004°23'0 0.0
2018-Jan-05 04:58N 51°15' E 004°23'0 0.0
2018-Jan-05 04:28N 51°15' E 004°23'0 0.0
2018-Jan-05 03:58N 51°15' E 004°23'0 0.0
2018-Jan-05 03:28N 51°15' E 004°23'0 0.0
2018-Jan-05 02:59N 51°15' E 004°23'1 1.7
2018-Jan-05 02:30N 51°15' E 004°22'3 5.5
2018-Jan-05 02:00N 51°17' E 004°20'3 7.0
2018-Jan-05 01:30N 51°21' E 004°18'0 0.8
2018-Jan-05 01:00N 51°21' E 004°17'0 0.0
2018-Jan-05 00:31N 51°21' E 004°17'0 0.3
2018-Jan-05 00:00N 51°21' E 004°17'3 5.3
2018-Jan-04 23:30N 51°22' E 004°13'4 7.7
2018-Jan-04 23:00N 51°22' E 004°07'611.3
2018-Jan-04 22:30N 51°26' E 004°01'612.0
2018-Jan-04 22:00N 51°22' E 003°54'611.8
2018-Jan-04 21:30N 51°22' E 003°45'611.9
2018-Jan-04 21:00N 51°25' E 003°37'3 6.4
2018-Jan-04 20:30N 51°27' E 003°32'613.1
2018-Jan-04 20:00N 51°32' E 003°25'611.5
2018-Jan-04 19:28N 51°38' E 003°21'4210.4
2018-Jan-04 15:25N 52°19' E 003°35'1312.2
2018-Jan-04 14:20N 52°31' E 003°46'713.1
2018-Jan-04 13:50N 52°37' E 003°50'514.1
2018-Jan-04 13:30N 52°41' E 003°52'714.6
2018-Jan-04 13:00N 52°48' E 003°56'814.9
2018-Jan-04 12:27N 52°56' E 003°60'4014.1
2018-Jan-04 09:36N 53°28' E 004°41'212.5
2018-Jan-04 09:28N 53°29' E 004°43'611.8
2018-Jan-04 08:59N 53°31' E 004°52'611.5
2018-Jan-04 08:30N 53°33' E 005°01'105 8.3
2018-Jan-03 19:52N 53°52' E 007°55'1 3.7
2018-Jan-03 19:30N 53°52' E 007°57'3 5.3
2018-Jan-03 19:00N 53°51' E 008°01'611.1
2018-Jan-03 18:30N 53°48' E 008°09'611.2
2018-Jan-03 18:00N 53°44' E 008°15'714.4
2018-Jan-03 17:30N 53°39' E 008°24'714.2
2018-Jan-03 17:00N 53°34' E 008°33'510.5
2018-Jan-03 16:30N 53°29' E 008°30'815.4
2018-Jan-03 16:00N 53°21' E 008°30'612.3
2018-Jan-03 15:30N 53°15' E 008°29'510.7
2018-Jan-03 15:01N 53°11' E 008°34'4 8.7
2018-Jan-03 14:31N 53°08' E 008°39'4 7.3
2018-Jan-03 13:59N 53°06' E 008°45'0 0.0
2018-Jan-03 13:29N 53°06' E 008°45'0 0.0
2018-Jan-03 12:59N 53°06' E 008°45'0 0.0
2018-Jan-03 12:29N 53°06' E 008°45'0 0.0
2018-Jan-03 11:59N 53°06' E 008°45'0 0.0
2018-Jan-03 11:29N 53°06' E 008°45'0 0.0
2018-Jan-03 10:59N 53°06' E 008°45'0 0.0
2018-Jan-03 10:29N 53°06' E 008°45'0 0.0
2018-Jan-03 09:59N 53°06' E 008°45'0 0.0
2018-Jan-03 09:29N 53°06' E 008°45'0 0.0
2018-Jan-03 08:59N 53°06' E 008°45'0 0.0
2018-Jan-03 08:29N 53°06' E 008°45'0 0.0
2018-Jan-03 07:59N 53°06' E 008°45'0 0.0
2018-Jan-03 07:29N 53°06' E 008°45'0 0.0
2018-Jan-03 06:59N 53°06' E 008°45'0 0.0
2018-Jan-03 06:29N 53°06' E 008°45'0 0.0
2018-Jan-03 05:59N 53°06' E 008°45'0 0.0
2018-Jan-03 05:29N 53°06' E 008°45'0 0.0
2018-Jan-03 04:59N 53°06' E 008°45'0 0.0
2018-Jan-03 04:29N 53°06' E 008°45'0 0.0
2018-Jan-03 03:59N 53°06' E 008°45'0 0.0
2018-Jan-03 03:29N 53°06' E 008°45'0 0.0
2018-Jan-03 02:59N 53°06' E 008°45'0 0.0
2018-Jan-03 02:29N 53°06' E 008°45'0 0.0
2018-Jan-03 01:59N 53°06' E 008°45'0 0.0
2018-Jan-03 01:29N 53°06' E 008°45'0 0.0
2018-Jan-03 00:59N 53°06' E 008°45'0 0.0
2018-Jan-03 00:29N 53°06' E 008°45'0 0.0
2018-Jan-02 23:59N 53°06' E 008°45'0 0.0
2018-Jan-02 23:29N 53°06' E 008°45'0 0.0
2018-Jan-02 22:59N 53°06' E 008°45'0 0.0
2018-Jan-02 22:29N 53°06' E 008°45'0 0.0
2018-Jan-02 21:59N 53°06' E 008°45'0 0.0
2018-Jan-02 21:29N 53°06' E 008°45'0 0.0
2018-Jan-02 20:59N 53°06' E 008°45'0 0.0
2018-Jan-02 20:29N 53°06' E 008°45'0 0.0
2018-Jan-02 19:59N 53°06' E 008°45'0 0.0
2018-Jan-02 19:29N 53°06' E 008°45'0 0.0
2018-Jan-02 18:59N 53°06' E 008°45'0 0.0
2018-Jan-02 18:29N 53°06' E 008°45'0 0.0
2018-Jan-02 17:59N 53°06' E 008°45'0 0.0
2018-Jan-02 17:29N 53°06' E 008°45'0 0.0
2018-Jan-02 16:59N 53°06' E 008°45'0 0.0
2018-Jan-02 16:29N 53°06' E 008°45'0 0.0
2018-Jan-02 15:59N 53°06' E 008°45'0 0.0
2018-Jan-02 15:29N 53°06' E 008°45'0 0.0
2018-Jan-02 14:59N 53°06' E 008°45'0 0.0
2018-Jan-02 14:29N 53°06' E 008°45'0 0.0
2018-Jan-02 13:59N 53°06' E 008°45'0 0.0
2018-Jan-02 13:29N 53°06' E 008°45'0 0.0
2018-Jan-02 12:59N 53°06' E 008°45'0 0.0
2018-Jan-02 12:29N 53°06' E 008°45'0 0.0
2018-Jan-02 11:59N 53°06' E 008°45'0 0.0
2018-Jan-02 11:29N 53°06' E 008°45'0 0.0
2018-Jan-02 10:59N 53°06' E 008°45'0 0.0
2018-Jan-02 10:29N 53°06' E 008°45'0 0.0
2018-Jan-02 09:59N 53°06' E 008°45'0 0.0
2018-Jan-02 09:29N 53°06' E 008°45'0 0.0
2018-Jan-02 08:29N 53°06' E 008°45'0 0.0
2018-Jan-02 07:59N 53°06' E 008°45'0 0.0
2018-Jan-02 07:29N 53°06' E 008°45'0 0.0
2018-Jan-02 06:59N 53°06' E 008°45'0 0.0
2018-Jan-02 06:29N 53°06' E 008°45'0 0.0
2018-Jan-02 05:59N 53°06' E 008°45'0 0.0
2018-Jan-02 05:29N 53°06' E 008°45'0 0.0
2018-Jan-02 04:29N 53°06' E 008°45'0 0.0
2018-Jan-02 03:59N 53°06' E 008°45'0 0.0
2018-Jan-02 03:29N 53°06' E 008°45'0 0.0
2018-Jan-02 02:59N 53°06' E 008°45'0 0.0
2018-Jan-02 02:29N 53°06' E 008°45'0 0.0
2018-Jan-02 01:59N 53°06' E 008°45'0 0.0
2018-Jan-02 01:29N 53°06' E 008°45'0 0.0
2018-Jan-02 00:59N 53°06' E 008°45'0 0.0
2018-Jan-02 00:29N 53°06' E 008°45'0 0.0
2018-Jan-01 23:59N 53°06' E 008°45'0 0.0
2018-Jan-01 23:29N 53°06' E 008°45'0 0.0
2018-Jan-01 22:59N 53°06' E 008°45'0 0.0
2018-Jan-01 22:29N 53°06' E 008°45'0 0.0
2018-Jan-01 21:59N 53°06' E 008°45'0 0.0
2018-Jan-01 21:29N 53°06' E 008°45'0 0.0
2018-Jan-01 20:59N 53°06' E 008°45'0 0.0
2018-Jan-01 20:29N 53°06' E 008°45'0 0.0
2018-Jan-01 19:59N 53°06' E 008°45'0 0.0
2018-Jan-01 19:29N 53°06' E 008°45'0 0.0
2018-Jan-01 18:59N 53°06' E 008°45'0 0.0
2018-Jan-01 18:29N 53°06' E 008°45'0 0.0
2018-Jan-01 17:59N 53°06' E 008°45'0 0.0
2018-Jan-01 17:29N 53°06' E 008°45'0 0.2
2018-Jan-01 15:01N 53°06' E 008°44'2 3.4
2018-Jan-01 14:30N 53°07' E 008°42'4 8.4
2018-Jan-01 14:00N 53°10' E 008°37'4 8.7
2018-Jan-01 13:30N 53°12' E 008°31'510.9
2018-Jan-01 13:00N 53°18' E 008°29'1111.3
2018-Jan-01 12:00N 53°29' E 008°30'5 9.6
2018-Jan-01 11:30N 53°33' E 008°33'510.2
2018-Jan-01 11:00N 53°37' E 008°28'714.4
2018-Jan-01 10:30N 53°42' E 008°19'714.6
2018-Jan-01 10:00N 53°47' E 008°09'713.5
2018-Jan-01 09:31N 53°51' E 008°01'  
Track history (hours):
 
Tides and Currents Weather Stations Pressure Air Temp Water Temp Dewpoint Dewpoint Depression Visibility Wind Speed Wind Dir Waves Ship Positions

Sloman Dispatcher

Last reported at 2018-Jan-11 07:44 UTC. Time now 2018-Jan-18 12:20 UTC.
Position N 35°52' W 004°28'.

Length 138 m; draft 6.8 m.

Type: Cargo ship. MMSI: 305738000.

Date/timePositionNaut miles runAvg speedWind from/ knotsBaromVisibWave heightAir tempDewpointWater temp
2018-Jan-11 07:44N 35°52' W 004°28'415.2
2018-Jan-11 07:30N 35°53' W 004°33'815.7
2018-Jan-11 07:00N 35°54' W 004°42'814.9
2018-Jan-11 06:30N 35°55' W 004°52'714.4
2018-Jan-11 06:00N 35°55' W 005°00'815.0
2018-Jan-11 05:29N 35°57' W 005°10'816.4
2018-Jan-11 05:00N 35°58' W 005°19'816.7
2018-Jan-11 04:30N 35°57' W 005°30'917.9
2018-Jan-11 03:59N 35°55' W 005°41'714.5
2018-Jan-11 03:30N 35°55' W 005°49'714.8
2018-Jan-11 03:00N 35°54' W 005°59'815.3
2018-Jan-11 02:29N 35°54' W 006°08'23412.3
2018-Jan-10 07:29N 38°19' W 009°59'714.3
2018-Jan-10 06:59N 38°26' W 010°01'814.4
2018-Jan-10 06:27N 38°33' W 010°03'714.4
2018-Jan-10 05:58N 38°40' W 010°05'613.8
2018-Jan-10 05:30N 38°46' W 010°06'713.6
2018-Jan-10 05:00N 38°53' W 010°06'713.0
2018-Jan-10 04:28N 38°60' W 010°03'613.6
2018-Jan-10 04:00N 39°06' W 009°59'713.3
2018-Jan-10 03:30N 39°12' W 009°56'714.0
2018-Jan-10 02:59N 39°18' W 009°52'1013.5
2018-Jan-10 02:15N 39°27' W 009°47'10913.9
2018-Jan-09 18:24N 41°06' W 008°46'512.3
2018-Jan-09 18:00N 41°10' W 008°42'1 2.1
2018-Jan-09 17:29N 41°11' W 008°42'0 0.0
2018-Jan-09 16:59N 41°11' W 008°42'0 0.0
2018-Jan-09 16:29N 41°11' W 008°42'0 0.0
2018-Jan-09 15:59N 41°11' W 008°42'0 0.0
2018-Jan-09 15:29N 41°11' W 008°42'0 0.0
2018-Jan-09 14:59N 41°11' W 008°42'0 0.0
2018-Jan-09 14:29N 41°11' W 008°42'0 0.0
2018-Jan-09 13:59N 41°11' W 008°42'0 0.0
2018-Jan-09 13:29N 41°11' W 008°42'0 0.0
2018-Jan-09 12:59N 41°11' W 008°42'0 0.0
2018-Jan-09 12:29N 41°11' W 008°42'0 0.0
2018-Jan-09 11:59N 41°11' W 008°42'0 0.0
2018-Jan-09 11:29N 41°11' W 008°42'0 0.0
2018-Jan-09 10:59N 41°11' W 008°42'0 0.0
2018-Jan-09 10:29N 41°11' W 008°42'0 0.0
2018-Jan-09 09:59N 41°11' W 008°42'0 0.0
2018-Jan-09 09:29N 41°11' W 008°42'0 0.0
2018-Jan-09 08:59N 41°11' W 008°42'0 0.0
2018-Jan-09 08:29N 41°11' W 008°42'0 0.0
2018-Jan-09 07:59N 41°11' W 008°42'0 0.0
2018-Jan-09 07:30N 41°11' W 008°42'2 4.3
2018-Jan-09 07:00N 41°09' W 008°43'4 7.0
2018-Jan-09 06:30N 41°12' W 008°47'611.4
2018-Jan-09 06:00N 41°17' W 008°51'56912.1
2018-Jan-07 07:01N 49°53' W 003°11'014.4
2018-Jan-07 07:01N 49°53' W 003°10'714.8
2018-Jan-07 06:30N 49°57' W 003°01'815.4
2018-Jan-07 06:00N 49°60' W 002°49'916.2
2018-Jan-07 05:27N 50°02' W 002°36'8813.8
2018-Jan-06 23:05N 50°27' W 000°24'112.2
2018-Jan-06 23:00N 50°27' W 000°23'612.5
2018-Jan-06 22:30N 50°29' W 000°13'713.4
2018-Jan-06 22:00N 50°31' W 000°03'714.0
2018-Jan-06 21:30N 50°33' E 000°07'714.9
2018-Jan-06 21:01N 50°35' E 000°18'815.5
2018-Jan-06 20:30N 50°37' E 000°30'815.6
2018-Jan-06 20:00N 50°41' E 000°41'815.9
2018-Jan-06 19:30N 50°46' E 000°51'815.6
2018-Jan-06 19:00N 50°50' E 001°01'1015.0
2018-Jan-06 18:18N 50°57' E 001°14'414.0
2018-Jan-06 18:00N 50°60' E 001°19'713.4
2018-Jan-06 17:30N 51°04' E 001°28'612.1
2018-Jan-06 17:00N 51°07' E 001°35'611.3
2018-Jan-06 16:31N 51°11' E 001°42'611.5
2018-Jan-06 16:00N 51°15' E 001°48'611.8
2018-Jan-06 15:31N 51°20' E 001°54'612.4
2018-Jan-06 15:00N 51°25' E 002°00'713.1
2018-Jan-06 14:31N 51°23' E 002°10'612.4
2018-Jan-06 14:01N 51°21' E 002°20'713.4
2018-Jan-06 13:29N 51°23' E 002°30'1013.4
2018-Jan-06 12:44N 51°22' E 002°46'415.4
2018-Jan-06 12:30N 51°23' E 002°52'815.7
2018-Jan-06 12:01N 51°24' E 003°04'714.8
2018-Jan-06 11:30N 51°25' E 003°16'714.4
2018-Jan-06 11:00N 51°25' E 003°28'714.2
2018-Jan-06 10:31N 51°26' E 003°39'714.3
2018-Jan-06 10:00N 51°21' E 003°47'714.7
2018-Jan-06 09:30N 51°25' E 003°58'3 6.7
2018-Jan-06 09:01N 51°23' E 004°02'713.1
2018-Jan-06 08:30N 51°23' E 004°13'510.9
2018-Jan-06 08:00N 51°18' E 004°17'2 4.6
2018-Jan-06 07:31N 51°17' E 004°20'0 0.8
2018-Jan-06 07:00N 51°16' E 004°20'2 4.3
2018-Jan-06 06:30N 51°15' E 004°23'0 0.1
2018-Jan-06 05:58N 51°15' E 004°23'0 0.0
2018-Jan-06 05:28N 51°15' E 004°23'0 0.0
2018-Jan-06 04:58N 51°15' E 004°23'0 0.0
2018-Jan-06 04:28N 51°15' E 004°23'0 0.0
2018-Jan-06 03:58N 51°15' E 004°23'0 0.0
2018-Jan-06 03:28N 51°15' E 004°23'0 0.0
2018-Jan-06 02:58N 51°15' E 004°23'0 0.0
2018-Jan-06 02:28N 51°15' E 004°23'0 0.0
2018-Jan-06 01:58N 51°15' E 004°23'0 0.0
2018-Jan-06 01:28N 51°15' E 004°23'0 0.0
2018-Jan-06 00:58N 51°15' E 004°23'0 0.0
2018-Jan-06 00:28N 51°15' E 004°23'0 0.0
2018-Jan-05 23:58N 51°15' E 004°23'0 0.0
2018-Jan-05 23:28N 51°15' E 004°23'0 0.0
2018-Jan-05 22:58N 51°15' E 004°23'0 0.0
2018-Jan-05 22:28N 51°15' E 004°23'0 0.0
2018-Jan-05 21:58N 51°15' E 004°23'0 0.0
2018-Jan-05 21:25N 51°15' E 004°23'0 0.0
2018-Jan-05 20:55N 51°15' E 004°23'0 0.0
2018-Jan-05 20:28N 51°15' E 004°23'0 0.0
2018-Jan-05 19:58N 51°15' E 004°23'0 0.0
2018-Jan-05 19:28N 51°15' E 004°23'0 0.0
2018-Jan-05 18:58N 51°15' E 004°23'0 0.0
2018-Jan-05 18:28N 51°15' E 004°23'0 0.0
2018-Jan-05 17:58N 51°15' E 004°23'0 0.0
2018-Jan-05 17:28N 51°15' E 004°23'0 0.0
2018-Jan-05 16:58N 51°15' E 004°23'0 0.0
2018-Jan-05 16:28N 51°15' E 004°23'0 0.0
2018-Jan-05 15:58N 51°15' E 004°23'0 0.0
2018-Jan-05 15:28N 51°15' E 004°23'0 0.0
2018-Jan-05 14:58N 51°15' E 004°23'0 0.0
2018-Jan-05 14:28N 51°15' E 004°23'0 0.0
2018-Jan-05 13:58N 51°15' E 004°23'0 0.0
2018-Jan-05 13:28N 51°15' E 004°23'0 0.0
2018-Jan-05 12:58N 51°15' E 004°23'0 0.0
2018-Jan-05 12:28N 51°15' E 004°23'0 0.0
2018-Jan-05 11:58N 51°15' E 004°23'0 0.0
2018-Jan-05 11:28N 51°15' E 004°23'0 0.0
2018-Jan-05 10:58N 51°15' E 004°23'0 0.0
2018-Jan-05 10:28N 51°15' E 004°23'0 0.0
2018-Jan-05 09:58N 51°15' E 004°23'0 0.0
2018-Jan-05 09:28N 51°15' E 004°23'0 0.0
2018-Jan-05 08:58N 51°15' E 004°23'0 0.0
2018-Jan-05 08:28N 51°15' E 004°23'0 0.0
2018-Jan-05 07:58N 51°15' E 004°23'0 0.0
2018-Jan-05 07:28N 51°15' E 004°23'0 0.0
2018-Jan-05 06:58N 51°15' E 004°23'0 0.0
2018-Jan-05 06:28N 51°15' E 004°23'0 0.0
2018-Jan-05 05:58N 51°15' E 004°23'0 0.0
2018-Jan-05 05:28N 51°15' E 004°23'0 0.0
2018-Jan-05 04:58N 51°15' E 004°23'0 0.0
2018-Jan-05 04:28N 51°15' E 004°23'0 0.0
2018-Jan-05 03:58N 51°15' E 004°23'0 0.0
2018-Jan-05 03:28N 51°15' E 004°23'0 0.0
2018-Jan-05 02:59N 51°15' E 004°23'1 1.7
2018-Jan-05 02:30N 51°15' E 004°22'3 5.5
2018-Jan-05 02:00N 51°17' E 004°20'3 7.0
2018-Jan-05 01:30N 51°21' E 004°18'0 0.8
2018-Jan-05 01:00N 51°21' E 004°17'0 0.0
2018-Jan-05 00:31N 51°21' E 004°17'0 0.3
2018-Jan-05 00:00N 51°21' E 004°17'3 5.3
2018-Jan-04 23:30N 51°22' E 004°13'4 7.7
2018-Jan-04 23:00N 51°22' E 004°07'611.3
2018-Jan-04 22:30N 51°26' E 004°01'612.0
2018-Jan-04 22:00N 51°22' E 003°54'611.8
2018-Jan-04 21:30N 51°22' E 003°45'611.9
2018-Jan-04 21:00N 51°25' E 003°37'3 6.4
2018-Jan-04 20:30N 51°27' E 003°32'613.1
2018-Jan-04 20:00N 51°32' E 003°25'611.5
2018-Jan-04 19:28N 51°38' E 003°21'4210.4
2018-Jan-04 15:25N 52°19' E 003°35'1312.2
2018-Jan-04 14:20N 52°31' E 003°46'713.1
2018-Jan-04 13:50N 52°37' E 003°50'514.1
2018-Jan-04 13:30N 52°41' E 003°52'714.6
2018-Jan-04 13:00N 52°48' E 003°56'814.9
2018-Jan-04 12:27N 52°56' E 003°60'4014.1
2018-Jan-04 09:36N 53°28' E 004°41'212.5
2018-Jan-04 09:28N 53°29' E 004°43'611.8
2018-Jan-04 08:59N 53°31' E 004°52'611.5
2018-Jan-04 08:30N 53°33' E 005°01'105 8.3
2018-Jan-03 19:52N 53°52' E 007°55'1 3.7
2018-Jan-03 19:30N 53°52' E 007°57'3 5.3
2018-Jan-03 19:00N 53°51' E 008°01'611.1
2018-Jan-03 18:30N 53°48' E 008°09'611.2
2018-Jan-03 18:00N 53°44' E 008°15'714.4
2018-Jan-03 17:30N 53°39' E 008°24'714.2
2018-Jan-03 17:00N 53°34' E 008°33'510.5
2018-Jan-03 16:30N 53°29' E 008°30'815.4
2018-Jan-03 16:00N 53°21' E 008°30'612.3
2018-Jan-03 15:30N 53°15' E 008°29'510.7
2018-Jan-03 15:01N 53°11' E 008°34'4 8.7
2018-Jan-03 14:31N 53°08' E 008°39'4 7.3
2018-Jan-03 13:59N 53°06' E 008°45'0 0.0
2018-Jan-03 13:29N 53°06' E 008°45'0 0.0
2018-Jan-03 12:59N 53°06' E 008°45'0 0.0
2018-Jan-03 12:29N 53°06' E 008°45'0 0.0
2018-Jan-03 11:59N 53°06' E 008°45'0 0.0
2018-Jan-03 11:29N 53°06' E 008°45'0 0.0
2018-Jan-03 10:59N 53°06' E 008°45'0 0.0
2018-Jan-03 10:29N 53°06' E 008°45'0 0.0
2018-Jan-03 09:59N 53°06' E 008°45'0 0.0
2018-Jan-03 09:29N 53°06' E 008°45'0 0.0
2018-Jan-03 08:59N 53°06' E 008°45'0 0.0
2018-Jan-03 08:29N 53°06' E 008°45'0 0.0
2018-Jan-03 07:59N 53°06' E 008°45'0 0.0
2018-Jan-03 07:29N 53°06' E 008°45'0 0.0
2018-Jan-03 06:59N 53°06' E 008°45'0 0.0
2018-Jan-03 06:29N 53°06' E 008°45'0 0.0
2018-Jan-03 05:59N 53°06' E 008°45'0 0.0
2018-Jan-03 05:29N 53°06' E 008°45'0 0.0
2018-Jan-03 04:59N 53°06' E 008°45'0 0.0
2018-Jan-03 04:29N 53°06' E 008°45'0 0.0
2018-Jan-03 03:59N 53°06' E 008°45'0 0.0
2018-Jan-03 03:29N 53°06' E 008°45'0 0.0
2018-Jan-03 02:59N 53°06' E 008°45'0 0.0
2018-Jan-03 02:29N 53°06' E 008°45'0 0.0
2018-Jan-03 01:59N 53°06' E 008°45'0 0.0
2018-Jan-03 01:29N 53°06' E 008°45'0 0.0
2018-Jan-03 00:59N 53°06' E 008°45'0 0.0
2018-Jan-03 00:29N 53°06' E 008°45'0 0.0
2018-Jan-02 23:59N 53°06' E 008°45'0 0.0
2018-Jan-02 23:29N 53°06' E 008°45'0 0.0
2018-Jan-02 22:59N 53°06' E 008°45'0 0.0
2018-Jan-02 22:29N 53°06' E 008°45'0 0.0
2018-Jan-02 21:59N 53°06' E 008°45'0 0.0
2018-Jan-02 21:29N 53°06' E 008°45'0 0.0
2018-Jan-02 20:59N 53°06' E 008°45'0 0.0
2018-Jan-02 20:29N 53°06' E 008°45'0 0.0
2018-Jan-02 19:59N 53°06' E 008°45'0 0.0
2018-Jan-02 19:29N 53°06' E 008°45'0 0.0
2018-Jan-02 18:59N 53°06' E 008°45'0 0.0
2018-Jan-02 18:29N 53°06' E 008°45'0 0.0
2018-Jan-02 17:59N 53°06' E 008°45'0 0.0
2018-Jan-02 17:29N 53°06' E 008°45'0 0.0
2018-Jan-02 16:59N 53°06' E 008°45'0 0.0
2018-Jan-02 16:29N 53°06' E 008°45'0 0.0
2018-Jan-02 15:59N 53°06' E 008°45'0 0.0
2018-Jan-02 15:29N 53°06' E 008°45'0 0.0
2018-Jan-02 14:59N 53°06' E 008°45'0 0.0
2018-Jan-02 14:29N 53°06' E 008°45'0 0.0
2018-Jan-02 13:59N 53°06' E 008°45'0 0.0
2018-Jan-02 13:29N 53°06' E 008°45'0 0.0
2018-Jan-02 12:59N 53°06' E 008°45'0 0.0
2018-Jan-02 12:29N 53°06' E 008°45'0 0.0
2018-Jan-02 11:59N 53°06' E 008°45'0 0.0
2018-Jan-02 11:29N 53°06' E 008°45'0 0.0
2018-Jan-02 10:59N 53°06' E 008°45'0 0.0
2018-Jan-02 10:29N 53°06' E 008°45'0 0.0
2018-Jan-02 09:59N 53°06' E 008°45'0 0.0
2018-Jan-02 09:29N 53°06' E 008°45'0 0.0
2018-Jan-02 08:29N 53°06' E 008°45'0 0.0
2018-Jan-02 07:59N 53°06' E 008°45'0 0.0
2018-Jan-02 07:29N 53°06' E 008°45'0 0.0
2018-Jan-02 06:59N 53°06' E 008°45'0 0.0
2018-Jan-02 06:29N 53°06' E 008°45'0 0.0
2018-Jan-02 05:59N 53°06' E 008°45'0 0.0
2018-Jan-02 05:29N 53°06' E 008°45'0 0.0
2018-Jan-02 04:29N 53°06' E 008°45'0 0.0
2018-Jan-02 03:59N 53°06' E 008°45'0 0.0
2018-Jan-02 03:29N 53°06' E 008°45'0 0.0
2018-Jan-02 02:59N 53°06' E 008°45'0 0.0
2018-Jan-02 02:29N 53°06' E 008°45'0 0.0
2018-Jan-02 01:59N 53°06' E 008°45'0 0.0
2018-Jan-02 01:29N 53°06' E 008°45'0 0.0
2018-Jan-02 00:59N 53°06' E 008°45'0 0.0
2018-Jan-02 00:29N 53°06' E 008°45'0 0.0
2018-Jan-01 23:59N 53°06' E 008°45'0 0.0
2018-Jan-01 23:29N 53°06' E 008°45'0 0.0
2018-Jan-01 22:59N 53°06' E 008°45'0 0.0
2018-Jan-01 22:29N 53°06' E 008°45'0 0.0
2018-Jan-01 21:59N 53°06' E 008°45'0 0.0
2018-Jan-01 21:29N 53°06' E 008°45'0 0.0
2018-Jan-01 20:59N 53°06' E 008°45'0 0.0
2018-Jan-01 20:29N 53°06' E 008°45'0 0.0
2018-Jan-01 19:59N 53°06' E 008°45'0 0.0
2018-Jan-01 19:29N 53°06' E 008°45'0 0.0
2018-Jan-01 18:59N 53°06' E 008°45'0 0.0
2018-Jan-01 18:29N 53°06' E 008°45'0 0.0
2018-Jan-01 17:59N 53°06' E 008°45'0 0.0
2018-Jan-01 17:29N 53°06' E 008°45'0 0.2
2018-Jan-01 15:01N 53°06' E 008°44'2 3.4
2018-Jan-01 14:30N 53°07' E 008°42'4 8.4
2018-Jan-01 14:00N 53°10' E 008°37'4 8.7
2018-Jan-01 13:30N 53°12' E 008°31'510.9
2018-Jan-01 13:00N 53°18' E 008°29'1111.3
2018-Jan-01 12:00N 53°29' E 008°30'5 9.6
2018-Jan-01 11:30N 53°33' E 008°33'510.2
2018-Jan-01 11:00N 53°37' E 008°28'714.4
2018-Jan-01 10:30N 53°42' E 008°19'714.6
2018-Jan-01 10:00N 53°47' E 008°09'713.5
2018-Jan-01 09:31N 53°51' E 008°01'  

Dump ship's entire track history